Time;durP1;ratioP1;P1;durP2;ratioP2;P2;SDS_P1;SDS_P2;PMS_P1;PMS_P2;Temp;Humidity;BMP_temperature;BMP_pressure;BME280_temperature;BME280_humidity;BME280_pressure;Samples;Min_cycle;Max_cycle;Signal;HPM_P1;HPM_P2
2021/03/16 00:01:54;;;;;;;27.92;4.80;;;6.30;85.30;;;;;;5031806;28;20127;-54
2021/03/16 00:04:20;;;;;;;25.38;4.07;;;6.30;85.40;;;;;;5030389;28;20038;-52
2021/03/16 00:06:45;;;;;;;25.42;3.70;;;6.30;85.60;;;;;;5030664;28;20034;-50
2021/03/16 00:09:11;;;;;;;25.42;3.97;;;6.30;85.50;;;;;;5030786;28;20045;-51
2021/03/16 00:11:37;;;;;;;27.25;3.70;;;6.40;85.20;;;;;;5030648;28;20069;-53
2021/03/16 00:14:03;;;;;;;25.35;3.80;;;6.40;84.90;;;;;;5022084;28;20545;-54
2021/03/16 00:16:29;;;;;;;30.02;3.85;;;6.40;84.80;;;;;;5028195;28;20060;-52
2021/03/16 00:18:55;;;;;;;22.55;3.50;;;6.40;85.00;;;;;;5028992;28;20041;-53
2021/03/16 00:21:21;;;;;;;24.30;3.25;;;6.30;84.90;;;;;;5028064;28;20077;-52
2021/03/16 00:23:46;;;;;;;25.98;3.67;;;6.40;85.00;;;;;;5029084;28;20030;-55
2021/03/16 00:26:12;;;;;;;19.55;3.30;;;6.40;84.90;;;;;;5027583;28;20055;-52
2021/03/16 00:28:38;;;;;;;25.13;3.58;;;6.40;84.90;;;;;;5025598;28;20464;-54
2021/03/16 00:31:04;;;;;;;22.98;3.30;;;6.50;84.70;;;;;;5025118;28;20057;-55
2021/03/16 00:33:29;;;;;;;23.23;3.72;;;6.50;84.50;;;;;;5027931;28;20049;-54
2021/03/16 00:35:55;;;;;;;18.35;3.65;;;6.40;84.40;;;;;;5023136;28;20051;-50
2021/03/16 00:38:21;;;;;;;22.25;3.20;;;6.50;84.20;;;;;;5026396;28;20031;-52
2021/03/16 00:40:47;;;;;;;20.00;3.05;;;6.40;83.50;;;;;;5013254;28;20053;-50
2021/03/16 00:43:13;;;;;;;24.65;4.38;;;6.40;83.60;;;;;;5030725;28;20034;-53
2021/03/16 00:45:38;;;;;;;20.70;3.13;;;6.40;83.80;;;;;;5012204;28;20049;-52
2021/03/16 00:48:05;;;;;;;19.85;3.60;;;6.30;83.60;;;;;;5028548;28;20049;-51
2021/03/16 00:50:31;;;;;;;20.70;3.83;;;6.40;82.80;;;;;;5030766;28;20114;-52
2021/03/16 00:52:56;;;;;;;20.92;3.50;;;6.40;83.20;;;;;;5022390;28;20136;-50
2021/03/16 00:55:22;;;;;;;24.95;3.70;;;6.30;83.60;;;;;;5030849;28;20131;-50
2021/03/16 00:57:48;;;;;;;22.58;3.67;;;6.30;84.00;;;;;;5028371;28;20041;-50
2021/03/16 01:00:14;;;;;;;25.05;3.88;;;6.30;84.30;;;;;;5030302;28;20513;-51
2021/03/16 01:02:39;;;;;;;28.40;3.70;;;6.30;84.70;;;;;;5020552;28;20048;-52
2021/03/16 01:05:06;;;;;;;23.17;3.42;;;6.30;85.10;;;;;;5028956;28;20049;-52
2021/03/16 01:07:31;;;;;;;19.40;4.00;;;6.30;85.40;;;;;;5026552;28;20091;-53
2021/03/16 01:09:58;;;;;;;22.50;3.60;;;6.40;85.70;;;;;;5031361;28;20033;-50
2021/03/16 01:12:25;;;;;;;22.48;3.55;;;6.30;86.00;;;;;;5025390;28;20124;-54
2021/03/16 01:14:50;;;;;;;19.58;3.63;;;6.30;86.20;;;;;;5017890;28;20117;-51
2021/03/16 01:17:17;;;;;;;24.98;3.33;;;6.30;85.90;;;;;;5031154;28;20049;-53
2021/03/16 01:19:43;;;;;;;25.48;3.90;;;6.30;85.60;;;;;;5029437;28;20033;-52
2021/03/16 01:22:09;;;;;;;21.98;2.97;;;6.30;85.50;;;;;;5020869;28;20076;-52
2021/03/16 01:24:34;;;;;;;16.60;3.67;;;6.30;85.50;;;;;;5030667;28;20076;-50
2021/03/16 01:27:00;;;;;;;18.70;3.25;;;6.40;85.30;;;;;;5027034;28;20045;-51
2021/03/16 01:29:26;;;;;;;20.52;3.33;;;6.30;85.20;;;;;;5032666;28;20041;-53
2021/03/16 01:31:51;;;;;;;22.38;3.17;;;6.40;85.20;;;;;;5029893;28;20038;-51
2021/03/16 01:34:18;;;;;;;20.50;3.10;;;6.40;85.30;;;;;;5032564;28;20037;-50
2021/03/16 01:36:44;;;;;;;18.42;3.88;;;6.40;85.00;;;;;;5026611;28;20045;-53
2021/03/16 01:39:10;;;;;;;22.55;3.42;;;6.40;83.50;;;;;;5035019;28;20116;-53
2021/03/16 01:41:36;;;;;;;18.17;3.88;;;6.40;83.50;;;;;;5035132;28;20129;-51
2021/03/16 01:44:01;;;;;;;17.08;3.55;;;6.40;83.60;;;;;;5029858;28;20621;-52
2021/03/16 01:46:27;;;;;;;21.05;3.83;;;6.40;84.00;;;;;;5026509;28;20564;-51
2021/03/16 01:48:53;;;;;;;26.63;3.72;;;6.40;84.50;;;;;;5027630;28;20130;-53
2021/03/16 01:51:19;;;;;;;19.77;3.92;;;6.50;85.10;;;;;;5029267;28;20493;-50
2021/03/16 01:53:45;;;;;;;23.63;3.90;;;6.50;85.10;;;;;;5025187;28;20497;-50
2021/03/16 01:56:12;;;;;;;21.85;3.22;;;6.40;85.10;;;;;;5034363;28;20144;-51
2021/03/16 01:58:40;;;;;;;16.38;2.85;;;6.50;85.10;;;;;;5033709;28;20111;-50
2021/03/16 02:01:06;;;;;;;19.17;3.05;;;6.40;85.00;;;;;;5030700;28;20346;-52
2021/03/16 02:03:31;;;;;;;23.85;3.58;;;6.40;85.20;;;;;;5029944;28;20075;-53
2021/03/16 02:05:57;;;;;;;17.80;3.45;;;6.40;85.20;;;;;;5034020;28;20077;-52
2021/03/16 02:08:46;;;;;;;18.67;3.22;;;6.40;85.30;;;;;;5028293;28;20045;-51
2021/03/16 02:11:35;;;;;;;17.02;3.25;;;6.40;85.70;;;;;;5031829;28;20068;-53
2021/03/16 02:14:25;;;;;;;22.13;3.25;;;6.40;85.50;;;;;;5031750;28;20099;-50
2021/03/16 02:17:00;;;;;;;24.05;3.75;;;6.40;85.00;;;;;;5030411;28;20106;-50
2021/03/16 02:19:38;;;;;;;19.20;3.30;;;6.40;85.10;;;;;;5026326;28;20056;-54
2021/03/16 02:22:05;;;;;;;30.60;4.75;;;6.50;85.30;;;;;;5028881;28;20060;-54
2021/03/16 02:25:01;;;;;;;20.02;3.45;;;6.40;85.30;;;;;;5033380;28;20037;-51
2021/03/16 02:27:30;;;;;;;17.42;3.25;;;6.50;84.90;;;;;;5023478;28;20057;-51
2021/03/16 02:30:01;;;;;;;16.45;2.90;;;6.40;84.90;;;;;;5022351;28;20140;-50
2021/03/16 02:32:28;;;;;;;19.75;3.03;;;6.40;84.90;;;;;;5022915;28;20100;-53
2021/03/16 02:34:59;;;;;;;15.82;2.80;;;6.40;85.00;;;;;;5015859;28;20141;-50
2021/03/16 02:37:26;;;;;;;18.67;3.13;;;6.40;85.20;;;;;;5019998;28;20044;-54
2021/03/16 02:39:53;;;;;;;21.35;3.25;;;6.40;85.20;;;;;;5024782;28;20111;-52
2021/03/16 02:42:20;;;;;;;18.60;3.08;;;6.40;85.30;;;;;;5036796;28;20048;-52
2021/03/16 02:44:46;;;;;;;23.90;4.15;;;6.40;85.30;;;;;;5031441;28;20046;-52
2021/03/16 02:47:12;;;;;;;23.98;3.40;;;6.40;85.60;;;;;;5029212;28;20045;-50
2021/03/16 02:49:41;;;;;;;20.45;3.67;;;6.40;85.60;;;;;;5021775;28;20033;-53
2021/03/16 02:52:08;;;;;;;23.15;3.40;;;6.40;85.80;;;;;;5015999;28;20048;-50
2021/03/16 02:54:34;;;;;;;21.70;3.10;;;6.40;86.00;;;;;;5033145;28;20080;-54
2021/03/16 02:57:01;;;;;;;21.98;3.88;;;6.40;86.00;;;;;;5024289;28;20102;-53
2021/03/16 02:59:28;;;;;;;25.95;3.45;;;6.40;86.10;;;;;;5021960;28;20096;-54
2021/03/16 03:01:56;;;;;;;18.67;2.75;;;6.40;86.20;;;;;;5035227;28;20032;-53
2021/03/16 03:04:24;;;;;;;23.92;4.25;;;6.40;86.20;;;;;;5038210;28;20410;-52
2021/03/16 03:06:51;;;;;;;23.45;3.63;;;6.50;86.30;;;;;;5033220;28;20038;-51
2021/03/16 03:09:17;;;;;;;15.77;2.78;;;6.40;86.40;;;;;;5026611;28;20282;-51
2021/03/16 03:11:42;;;;;;;21.92;3.70;;;6.40;86.50;;;;;;5029345;28;20091;-54
2021/03/16 03:14:10;;;;;;;23.88;3.70;;;6.40;86.70;;;;;;5032974;28;20560;-54
2021/03/16 03:16:36;;;;;;;19.13;3.05;;;6.40;86.80;;;;;;5020951;28;20111;-54
2021/03/16 03:19:02;;;;;;;28.40;3.65;;;6.40;87.00;;;;;;4995112;28;20463;-52
2021/03/16 03:21:38;;;;;;;20.75;3.15;;;6.40;87.60;;;;;;5024302;28;20491;-53
2021/03/16 03:24:09;;;;;;;20.48;3.20;;;6.40;87.30;;;;;;5013514;28;20096;-54
2021/03/16 03:26:55;;;;;;;21.00;3.60;;;6.40;87.30;;;;;;5028549;28;20068;-52
2021/03/16 03:29:25;;;;;;;19.52;3.10;;;6.40;87.50;;;;;;5021678;28;20128;-53
2021/03/16 03:31:53;;;;;;;29.85;4.82;;;6.40;87.40;;;;;;5032298;28;20029;-54
2021/03/16 03:34:19;;;;;;;20.60;3.25;;;6.40;87.50;;;;;;5025924;28;20033;-53
2021/03/16 03:36:51;;;;;;;21.58;3.38;;;6.40;87.60;;;;;;5026737;28;20493;-53
2021/03/16 03:39:18;;;;;;;22.98;3.25;;;6.40;87.60;;;;;;5027421;28;20046;-55
2021/03/16 03:41:44;;;;;;;30.13;4.35;;;6.30;87.70;;;;;;5022757;28;20103;-54
2021/03/16 03:44:11;;;;;;;27.15;3.40;;;6.30;87.70;;;;;;5029686;28;20037;-51
2021/03/16 03:46:39;;;;;;;20.90;3.00;;;6.30;87.90;;;;;;5021715;28;20433;-53
2021/03/16 03:49:05;;;;;;;21.02;3.38;;;6.30;87.90;;;;;;5026186;28;20046;-53
2021/03/16 03:51:33;;;;;;;22.35;4.28;;;6.40;88.00;;;;;;5027642;28;20037;-52
2021/03/16 03:54:01;;;;;;;23.23;3.88;;;6.40;87.90;;;;;;5017789;28;20049;-53
2021/03/16 03:56:33;;;;;;;22.40;3.10;;;6.30;87.80;;;;;;5019611;28;20042;-52
2021/03/16 03:59:00;;;;;;;20.73;3.30;;;6.30;87.80;;;;;;5021024;28;20128;-53
2021/03/16 04:01:29;;;;;;;22.23;2.97;;;6.30;87.70;;;;;;5021907;28;20037;-54
2021/03/16 04:03:55;;;;;;;22.33;2.80;;;6.30;87.60;;;;;;5028577;28;20112;-54
2021/03/16 04:06:24;;;;;;;22.52;2.95;;;6.30;87.40;;;;;;5024598;28;20497;-54
2021/03/16 04:08:54;;;;;;;17.10;3.05;;;6.30;87.50;;;;;;5031532;28;20077;-53
2021/03/16 04:11:25;;;;;;;21.55;3.60;;;6.40;87.50;;;;;;5011860;28;20046;-54
2021/03/16 04:13:52;;;;;;;19.13;4.10;;;6.30;87.60;;;;;;5013060;28;20272;-51
2021/03/16 04:16:20;;;;;;;17.27;3.00;;;6.30;87.70;;;;;;5019471;28;20054;-53
2021/03/16 04:18:47;;;;;;;20.23;3.17;;;6.30;87.70;;;;;;5012500;28;20413;-53
2021/03/16 04:21:13;;;;;;;17.60;2.83;;;6.30;87.80;;;;;;5018628;28;20034;-54
2021/03/16 04:23:40;;;;;;;20.20;3.50;;;6.30;88.00;;;;;;5028305;28;20091;-53
2021/03/16 04:26:05;;;;;;;16.70;3.47;;;6.20;88.10;;;;;;5020946;28;20041;-55
2021/03/16 04:28:31;;;;;;;13.52;2.88;;;6.30;88.10;;;;;;5026705;28;20052;-55
2021/03/16 04:30:56;;;;;;;22.58;3.88;;;6.30;88.20;;;;;;5028857;28;20061;-54
2021/03/16 04:33:22;;;;;;;18.45;3.13;;;6.20;88.20;;;;;;5028652;28;20053;-54
2021/03/16 04:35:48;;;;;;;16.63;3.20;;;6.20;88.20;;;;;;5028433;28;20045;-54
2021/03/16 04:38:14;;;;;;;18.38;3.85;;;6.30;88.20;;;;;;5031310;28;20037;-53
2021/03/16 04:40:41;;;;;;;13.93;3.72;;;6.20;88.20;;;;;;5021765;28;20038;-54
2021/03/16 04:43:08;;;;;;;23.80;3.20;;;6.20;88.20;;;;;;5024451;28;20054;-54
2021/03/16 04:45:34;;;;;;;25.85;3.15;;;6.20;88.20;;;;;;5028770;28;20132;-54
2021/03/16 04:48:00;;;;;;;16.88;2.60;;;6.20;88.20;;;;;;5023052;28;20105;-53
2021/03/16 04:50:26;;;;;;;24.13;3.03;;;6.20;88.10;;;;;;5021213;28;20064;-53
2021/03/16 04:52:52;;;;;;;23.75;3.33;;;6.20;87.90;;;;;;5030917;28;20037;-50
2021/03/16 04:55:20;;;;;;;17.38;3.08;;;6.20;88.00;;;;;;5030923;28;20123;-54
2021/03/16 04:57:46;;;;;;;18.00;2.35;;;6.10;88.00;;;;;;5012447;28;20317;-54
2021/03/16 05:00:13;;;;;;;25.60;3.38;;;6.10;88.10;;;;;;5019494;28;20402;-54
2021/03/16 05:02:39;;;;;;;21.95;2.63;;;6.10;88.00;;;;;;5027298;28;20041;-54
2021/03/16 05:05:05;;;;;;;15.95;2.75;;;6.10;88.60;;;;;;5024015;28;20104;-54
2021/03/16 05:07:31;;;;;;;24.02;3.28;;;6.10;88.10;;;;;;5017623;28;20038;-54
2021/03/16 05:09:57;;;;;;;21.17;2.75;;;6.00;88.10;;;;;;5030083;28;20062;-54
2021/03/16 05:12:24;;;;;;;19.55;2.90;;;6.00;88.20;;;;;;5020550;28;20133;-53
2021/03/16 05:14:50;;;;;;;20.42;2.75;;;6.00;88.30;;;;;;5027081;28;20510;-52
2021/03/16 05:17:16;;;;;;;17.13;2.53;;;6.00;88.50;;;;;;5018545;28;20468;-53
2021/03/16 05:19:42;;;;;;;16.90;2.70;;;6.00;88.40;;;;;;5028029;28;20034;-53
2021/03/16 05:22:08;;;;;;;22.42;2.80;;;6.00;88.50;;;;;;5027850;28;20103;-54
2021/03/16 05:24:34;;;;;;;21.00;2.95;;;6.00;88.50;;;;;;5030441;28;20414;-54
2021/03/16 05:27:00;;;;;;;17.25;2.92;;;6.00;88.50;;;;;;5016139;28;20041;-50
2021/03/16 05:29:26;;;;;;;18.20;2.55;;;5.90;88.50;;;;;;5030515;28;20045;-54
2021/03/16 05:31:52;;;;;;;16.90;2.85;;;5.90;88.60;;;;;;5029543;28;20056;-53
2021/03/16 05:34:17;;;;;;;22.00;3.05;;;5.80;88.50;;;;;;5021640;28;20046;-54
2021/03/16 05:36:43;;;;;;;19.33;3.25;;;5.80;88.70;;;;;;5028581;28;20045;-53
2021/03/16 05:39:09;;;;;;;21.20;2.80;;;5.80;88.80;;;;;;5030514;28;20037;-54
2021/03/16 05:41:40;;;;;;;14.73;2.47;;;5.70;89.00;;;;;;5030119;28;20041;-52
2021/03/16 05:44:07;;;;;;;20.17;2.80;;;5.70;89.10;;;;;;5030219;28;20037;-54
2021/03/16 05:46:35;;;;;;;22.65;3.05;;;5.70;89.30;;;;;;5029858;28;20041;-53
2021/03/16 05:49:08;;;;;;;18.52;2.90;;;5.70;89.40;;;;;;5027563;28;20069;-51
2021/03/16 05:51:35;;;;;;;22.73;3.22;;;5.70;89.50;;;;;;5027567;28;20041;-53
2021/03/16 05:54:00;;;;;;;26.23;3.35;;;5.70;89.60;;;;;;5026997;28;20038;-52
2021/03/16 05:56:29;;;;;;;35.60;3.38;;;5.80;89.40;;;;;;5025473;28;20050;-53
2021/03/16 05:58:56;;;;;;;25.42;3.25;;;5.80;89.60;;;;;;5008303;28;20045;-53
2021/03/16 06:01:21;;;;;;;20.17;3.80;;;5.80;89.70;;;;;;5019576;28;20045;-53
2021/03/16 06:03:48;;;;;;;20.17;3.10;;;5.80;89.70;;;;;;5012088;28;20094;-53
2021/03/16 06:06:14;;;;;;;26.23;3.97;;;5.80;89.70;;;;;;5026969;28;20566;-52
2021/03/16 06:08:41;;;;;;;23.92;3.53;;;5.80;89.60;;;;;;5022388;28;20057;-53
2021/03/16 06:11:07;;;;;;;17.25;3.72;;;5.70;89.70;;;;;;5030227;28;20486;-54
2021/03/16 06:13:33;;;;;;;21.45;2.70;;;5.80;89.80;;;;;;5020537;28;20090;-52
2021/03/16 06:16:10;;;;;;;14.18;3.42;;;5.80;89.90;;;;;;5033459;28;20049;-54
2021/03/16 06:18:42;;;;;;;25.38;3.83;;;5.80;90.00;;;;;;5033816;28;20490;-54
2021/03/16 06:21:08;;;;;;;22.35;3.50;;;5.80;90.00;;;;;;5033732;28;20049;-51
2021/03/16 06:23:36;;;;;;;21.23;3.20;;;5.80;90.00;;;;;;5032930;28;20047;-53
2021/03/16 06:26:03;;;;;;;20.35;3.50;;;5.80;90.00;;;;;;5033199;28;20072;-51
2021/03/16 06:28:36;;;;;;;23.17;3.90;;;5.80;90.10;;;;;;5033200;28;20435;-55
2021/03/16 06:31:02;;;;;;;19.17;2.92;;;5.80;90.10;;;;;;5040182;28;20039;-51
2021/03/16 06:33:31;;;;;;;29.98;4.28;;;5.80;90.10;;;;;;5029470;28;20076;-55
2021/03/16 06:36:02;;;;;;;19.50;3.50;;;5.80;90.10;;;;;;5027792;28;20072;-55
2021/03/16 06:38:29;;;;;;;16.35;3.25;;;5.80;90.10;;;;;;5023377;28;20068;-51
2021/03/16 06:41:16;;;;;;;25.00;3.50;;;5.90;90.10;;;;;;5032774;28;20092;-55
2021/03/16 06:44:02;;;;;;;18.25;3.35;;;5.90;90.10;;;;;;5021285;28;20057;-51
2021/03/16 06:46:38;;;;;;;21.27;3.10;;;5.90;90.10;;;;;;5026562;28;20107;-50
2021/03/16 06:49:13;;;;;;;21.38;3.83;;;5.90;90.10;;;;;;5023332;28;20150;-54
2021/03/16 06:51:39;;;;;;;22.95;4.68;;;5.90;90.10;;;;;;5021021;28;20041;-54
2021/03/16 06:54:12;;;;;;;15.85;2.75;;;6.00;90.10;;;;;;5030930;28;20057;-54
2021/03/16 06:56:38;;;;;;;;;;;5.90;90.10;;;;;;5032189;28;20413;-53
2021/03/16 06:59:18;;;;;;;22.35;3.83;;;6.00;90.10;;;;;;5026582;28;19917;-51
2021/03/16 07:01:44;;;;;;;19.20;3.25;;;6.00;90.00;;;;;;5022925;28;20037;-50
2021/03/16 07:04:18;;;;;;;17.08;3.00;;;6.10;90.00;;;;;;5031927;28;20037;-52
2021/03/16 07:06:48;;;;;;;20.85;3.70;;;6.20;90.00;;;;;;5022449;28;20052;-50
2021/03/16 07:09:15;;;;;;;27.35;3.70;;;6.10;90.00;;;;;;5028156;28;20029;-56
2021/03/16 07:11:46;;;;;;;16.40;2.75;;;6.10;90.00;;;;;;5022271;28;20050;-50
2021/03/16 07:14:14;;;;;;;27.67;4.10;;;6.20;90.00;;;;;;5027893;28;20042;-51
2021/03/16 07:16:42;;;;;;;26.58;3.22;;;6.20;90.00;;;;;;5027586;28;20417;-55
2021/03/16 07:19:11;;;;;;;24.70;3.70;;;6.20;89.90;;;;;;5027747;28;20497;-53
2021/03/16 07:21:42;;;;;;;17.08;3.35;;;6.30;89.80;;;;;;5029406;28;20077;-52
2021/03/16 07:24:10;;;;;;;18.33;3.63;;;6.30;89.90;;;;;;5029225;28;20490;-54
2021/03/16 07:26:37;;;;;;;18.90;3.40;;;6.40;89.80;;;;;;5029606;28;20038;-51
2021/03/16 07:29:04;;;;;;;19.10;2.78;;;6.50;89.60;;;;;;5031529;28;20056;-52
2021/03/16 07:31:35;;;;;;;17.45;2.83;;;6.50;89.50;;;;;;5030251;28;20048;-54
2021/03/16 07:34:06;;;;;;;24.98;3.50;;;6.60;89.10;;;;;;5037381;28;20101;-53
2021/03/16 07:36:33;;;;;;;24.92;3.35;;;6.60;88.90;;;;;;5035697;28;20064;-53
2021/03/16 07:39:00;;;;;;;18.42;2.92;;;6.60;88.70;;;;;;5027194;28;20061;-54
2021/03/16 07:41:26;;;;;;;18.08;3.58;;;6.70;88.40;;;;;;5027421;28;20072;-50
2021/03/16 07:44:12;;;;;;;15.10;2.88;;;6.70;88.20;;;;;;5029306;28;20048;-53
2021/03/16 07:46:47;;;;;;;22.98;3.33;;;6.80;88.10;;;;;;5026366;28;20524;-55
2021/03/16 07:49:28;;;;;;;19.73;3.10;;;6.80;87.50;;;;;;5014922;28;20048;-54
2021/03/16 07:51:54;;;;;;;23.65;3.75;;;6.90;87.30;;;;;;5029280;28;20502;-55
2021/03/16 07:54:21;;;;;;;18.77;2.55;;;6.90;86.90;;;;;;5027441;28;20044;-54
2021/03/16 07:56:57;;;;;;;17.63;2.97;;;7.00;87.00;;;;;;5030347;28;20050;-55
2021/03/16 07:59:33;;;;;;;19.65;3.67;;;7.20;86.20;;;;;;5034197;28;20091;-54
2021/03/16 08:01:59;;;;;;;20.80;2.65;;;7.20;84.90;;;;;;5031132;28;20045;-55
2021/03/16 08:04:39;;;;;;;20.80;3.53;;;7.20;85.50;;;;;;5032822;28;20043;-55
2021/03/16 08:07:12;;;;;;;17.92;3.17;;;7.30;85.30;;;;;;5032014;28;20078;-54
2021/03/16 08:09:51;;;;;;;19.88;3.00;;;7.40;84.70;;;;;;5023932;28;20124;-52
2021/03/16 08:12:27;;;;;;;15.85;3.17;;;7.40;83.80;;;;;;5028633;28;20052;-55
2021/03/16 08:14:54;;;;;;;14.02;2.80;;;7.30;84.20;;;;;;5030033;28;20379;-54
2021/03/16 08:17:30;;;;;;;18.40;2.85;;;7.30;84.20;;;;;;5027292;28;20061;-55
2021/03/16 08:19:57;;;;;;;18.23;2.58;;;7.30;83.80;;;;;;5025626;28;20087;-54
2021/03/16 08:22:25;;;;;;;21.60;2.80;;;7.20;83.80;;;;;;5022663;28;20045;-53
2021/03/16 08:24:53;;;;;;;18.55;2.63;;;7.20;84.10;;;;;;5025154;28;20045;-53
2021/03/16 08:27:27;;;;;;;12.60;2.35;;;7.40;82.30;;;;;;5025058;28;20038;-55
2021/03/16 08:29:53;;;;;;;12.45;2.13;;;7.50;82.10;;;;;;5025301;28;20454;-55
2021/03/16 08:32:20;;;;;;;14.98;2.28;;;7.70;78.80;;;;;;5029972;28;20480;-53
2021/03/16 08:34:47;;;;;;;14.32;2.40;;;7.80;79.80;;;;;;5026358;28;20443;-53
2021/03/16 08:37:36;;;;;;;14.63;1.98;;;7.70;78.60;;;;;;5024315;28;20042;-54
2021/03/16 08:40:03;;;;;;;15.30;2.20;;;7.70;78.20;;;;;;5023774;28;20068;-55
2021/03/16 08:42:31;;;;;;;15.82;2.50;;;7.80;79.60;;;;;;5020460;28;20042;-53
2021/03/16 08:44:57;;;;;;;13.38;2.60;;;7.80;76.70;;;;;;4988351;28;20449;-53
2021/03/16 08:47:27;;;;;;;10.80;1.80;;;8.00;77.50;;;;;;5025293;28;20049;-53
2021/03/16 08:49:55;;;;;;;8.43;1.80;;;8.20;75.70;;;;;;5025223;28;20037;-55
2021/03/16 08:52:27;;;;;;;10.48;2.03;;;8.30;76.00;;;;;;5021322;28;20088;-53
2021/03/16 08:54:55;;;;;;;12.27;1.90;;;8.50;75.80;;;;;;5024727;28;20038;-54
2021/03/16 08:57:27;;;;;;;14.70;1.77;;;8.60;73.70;;;;;;5020799;28;20041;-55
2021/03/16 09:00:04;;;;;;;11.57;1.85;;;8.60;69.60;;;;;;5009494;28;20033;-55
2021/03/16 09:02:34;;;;;;;9.63;1.90;;;8.60;71.50;;;;;;5007614;28;20125;-54
2021/03/16 09:05:02;;;;;;;9.20;1.92;;;8.50;71.00;;;;;;5027471;28;20041;-54
2021/03/16 09:07:30;;;;;;;5.43;1.33;;;8.60;69.40;;;;;;5020840;28;20518;-55
2021/03/16 09:10:05;;;;;;;17.92;2.22;;;8.50;69.40;;;;;;5025119;28;20552;-55
2021/03/16 09:12:41;;;;;;;5.80;1.75;;;8.50;70.00;;;;;;5028908;28;20037;-54
2021/03/16 09:15:16;;;;;;;16.27;2.78;;;8.60;70.90;;;;;;5001320;28;20038;-54
2021/03/16 09:17:44;;;;;;;11.43;2.00;;;8.50;73.10;;;;;;5021248;28;20051;-54
2021/03/16 09:20:11;;;;;;;15.70;2.38;;;8.40;74.50;;;;;;5027728;28;20068;-55
2021/03/16 09:22:38;;;;;;;14.77;2.53;;;8.40;75.10;;;;;;5023704;28;20041;-55
2021/03/16 09:25:07;;;;;;;13.80;2.50;;;8.30;76.00;;;;;;5028843;28;20520;-54
2021/03/16 09:27:34;;;;;;;16.70;2.40;;;8.30;76.40;;;;;;5029246;28;20042;-54
2021/03/16 09:30:00;;;;;;;14.07;2.22;;;8.30;76.20;;;;;;5026994;28;20115;-53
2021/03/16 09:32:26;;;;;;;16.98;2.30;;;8.30;76.60;;;;;;5028124;28;20486;-52
2021/03/16 09:34:52;;;;;;;8.68;2.30;;;8.20;76.50;;;;;;5032217;28;20573;-53
2021/03/16 09:37:20;;;;;;;12.95;2.42;;;8.20;75.90;;;;;;5025419;28;20046;-51
2021/03/16 09:39:59;;;;;;;8.90;1.90;;;8.30;76.50;;;;;;5009950;28;20041;-51
2021/03/16 09:42:38;;;;;;;16.85;2.38;;;8.40;74.90;;;;;;5029274;28;20048;-52
2021/03/16 09:45:23;;;;;;;11.57;2.13;;;8.40;75.70;;;;;;5025579;28;20033;-52
2021/03/16 09:47:50;;;;;;;14.85;2.88;;;8.50;76.10;;;;;;5015343;28;20046;-56
2021/03/16 09:50:30;;;;;;;10.82;2.00;;;8.60;75.40;;;;;;5023646;28;20509;-55
2021/03/16 09:53:01;;;;;;;13.10;2.37;;;8.70;74.60;;;;;;4997353;28;20049;-54
2021/03/16 09:55:27;;;;;;;8.25;1.75;;;8.80;73.40;;;;;;5031718;28;20334;-54
2021/03/16 09:57:54;;;;;;;8.05;1.70;;;9.00;71.50;;;;;;5025463;28;20049;-54
2021/03/16 10:00:21;;;;;;;9.07;1.90;;;9.00;72.20;;;;;;5023651;28;20422;-54
2021/03/16 10:02:47;;;;;;;8.32;1.60;;;9.00;70.80;;;;;;5030322;28;20045;-54
2021/03/16 10:05:18;;;;;;;10.07;1.75;;;9.00;68.30;;;;;;5029322;28;20091;-51
2021/03/16 10:07:51;;;;;;;12.13;1.80;;;8.90;69.30;;;;;;5025277;28;20456;-54
2021/03/16 10:10:21;;;;;;;11.98;1.67;;;9.00;68.70;;;;;;5029267;28;20499;-53
2021/03/16 10:12:52;;;;;;;9.27;1.88;;;9.10;68.00;;;;;;5021717;28;20041;-54
2021/03/16 10:15:29;;;;;;;8.30;1.38;;;9.20;64.80;;;;;;5012541;28;20041;-54
2021/03/16 10:17:57;;;;;;;10.10;1.92;;;9.10;65.50;;;;;;5029972;28;20064;-55
2021/03/16 10:20:35;;;;;;;10.52;1.90;;;9.10;66.30;;;;;;5028966;28;20073;-55
2021/03/16 10:23:03;;;;;;;9.07;1.85;;;9.00;66.90;;;;;;5022914;28;20509;-54
2021/03/16 10:25:31;;;;;;;11.95;1.88;;;8.90;67.50;;;;;;5022461;28;20671;-52
2021/03/16 10:28:08;;;;;;;11.38;2.03;;;8.90;65.20;;;;;;5016251;28;20034;-54
2021/03/16 10:30:36;;;;;;;15.02;2.67;;;8.80;67.50;;;;;;5001832;28;20049;-54
2021/03/16 10:33:05;;;;;;;13.15;1.80;;;8.70;68.50;;;;;;5023053;28;20094;-55
2021/03/16 10:35:31;;;;;;;11.70;2.15;;;8.80;70.70;;;;;;5026456;28;20399;-54
2021/03/16 10:37:57;;;;;;;12.60;1.88;;;9.00;70.40;;;;;;5024036;28;20096;-55
2021/03/16 10:40:23;;;;;;;9.75;2.17;;;9.10;70.20;;;;;;5030371;28;20037;-55
2021/03/16 10:42:50;;;;;;;12.25;2.03;;;9.30;70.30;;;;;;5022015;28;20109;-54
2021/03/16 10:45:16;;;;;;;10.57;1.80;;;9.40;68.10;;;;;;5017370;28;20058;-52
2021/03/16 10:47:42;;;;;;;11.77;1.80;;;9.40;67.20;;;;;;5023617;28;20486;-53
2021/03/16 10:50:08;;;;;;;12.07;1.90;;;9.40;68.40;;;;;;5020731;28;20052;-56
2021/03/16 10:52:34;;;;;;;15.10;2.67;;;9.40;68.60;;;;;;5015878;28;20437;-55
2021/03/16 10:54:59;;;;;;;10.20;1.60;;;9.30;68.10;;;;;;5021720;28;20068;-55
2021/03/16 10:57:26;;;;;;;8.75;1.48;;;9.30;68.80;;;;;;5016548;28;20050;-55
2021/03/16 10:59:53;;;;;;;10.73;2.08;;;9.30;67.00;;;;;;4995451;28;20137;-55
2021/03/16 11:02:19;;;;;;;9.57;1.65;;;9.30;68.30;;;;;;5029716;28;20072;-55
2021/03/16 11:04:44;;;;;;;12.73;1.88;;;9.40;67.20;;;;;;5022641;28;20099;-54
2021/03/16 11:07:10;;;;;;;9.25;1.95;;;9.50;67.40;;;;;;5026242;28;20551;-52
2021/03/16 11:09:36;;;;;;;20.23;2.78;;;9.50;66.40;;;;;;5027747;28;20153;-54
2021/03/16 11:12:02;;;;;;;11.13;1.92;;;9.40;66.90;;;;;;5018434;28;20046;-55
2021/03/16 11:14:28;;;;;;;11.48;2.10;;;9.30;67.40;;;;;;4996672;28;20049;-54
2021/03/16 11:16:53;;;;;;;12.25;1.85;;;9.20;66.90;;;;;;5016917;28;20512;-55
2021/03/16 11:19:19;;;;;;;9.77;1.60;;;9.20;65.90;;;;;;5019500;28;20178;-55
2021/03/16 11:21:45;;;;;;;8.18;1.42;;;9.30;65.00;;;;;;5014659;28;20083;-55
2021/03/16 11:24:12;;;;;;;17.08;2.33;;;9.30;62.00;;;;;;5016981;28;20033;-55
2021/03/16 11:26:37;;;;;;;10.35;1.77;;;9.50;64.30;;;;;;5012301;28;20052;-56
2021/03/16 11:29:03;;;;;;;8.57;1.30;;;9.60;63.70;;;;;;5018738;28;20053;-54
2021/03/16 11:31:30;;;;;;;9.25;1.58;;;9.70;62.70;;;;;;5024836;28;20189;-55
2021/03/16 11:33:57;;;;;;;7.22;1.80;;;9.70;61.90;;;;;;5027080;28;20033;-54
2021/03/16 11:36:22;;;;;;;7.78;1.80;;;9.60;61.60;;;;;;5021590;28;20045;-55
2021/03/16 11:38:48;;;;;;;8.95;1.42;;;9.70;63.10;;;;;;5024282;28;20053;-55
2021/03/16 11:41:13;;;;;;;6.97;1.60;;;9.80;61.90;;;;;;5021720;28;20045;-55
2021/03/16 11:43:39;;;;;;;6.50;1.42;;;9.90;60.60;;;;;;5021497;28;20649;-55
2021/03/16 11:46:05;;;;;;;6.65;1.63;;;10.00;60.50;;;;;;5021484;28;20053;-56
2021/03/16 11:48:31;;;;;;;5.53;1.23;;;10.00;59.00;;;;;;5027964;28;20041;-55
2021/03/16 11:50:56;;;;;;;4.60;1.20;;;9.90;56.20;;;;;;5026275;28;20033;-56
2021/03/16 11:53:22;;;;;;;8.55;1.40;;;10.00;57.40;;;;;;5029728;28;20041;-55
2021/03/16 11:55:48;;;;;;;8.82;1.58;;;10.00;56.40;;;;;;5024907;28;20520;-54
2021/03/16 11:58:14;;;;;;;5.53;1.55;;;9.90;58.30;;;;;;5017138;28;20052;-55
2021/03/16 12:00:40;;;;;;;9.10;1.33;;;9.80;59.80;;;;;;5018391;28;20034;-56
2021/03/16 12:03:06;;;;;;;8.40;1.35;;;9.90;60.20;;;;;;5016887;28;20038;-55
2021/03/16 12:05:32;;;;;;;8.57;1.60;;;9.90;59.40;;;;;;5023380;28;20057;-55
2021/03/16 12:07:57;;;;;;;6.35;1.33;;;9.90;58.50;;;;;;5014523;28;20444;-56
2021/03/16 12:10:23;;;;;;;11.45;1.65;;;9.90;60.40;;;;;;5020620;28;20045;-56
2021/03/16 12:12:49;;;;;;;7.30;1.50;;;10.10;60.90;;;;;;5023128;28;20041;-54
2021/03/16 12:15:19;;;;;;;8.15;1.35;;;10.00;60.00;;;;;;5021372;28;20792;-53
2021/03/16 12:17:47;;;;;;;6.72;2.00;;;9.80;59.90;;;;;;5028801;28;20052;-54
2021/03/16 12:20:13;;;;;;;10.98;1.63;;;9.70;61.30;;;;;;5030884;28;20029;-51
2021/03/16 12:22:40;;;;;;;9.18;1.75;;;9.60;62.40;;;;;;5021977;28;20050;-53
2021/03/16 12:25:07;;;;;;;8.93;1.48;;;9.60;63.20;;;;;;5021822;28;20034;-53
2021/03/16 12:27:32;;;;;;;13.48;2.33;;;9.60;64.20;;;;;;5018636;28;20041;-54
2021/03/16 12:29:58;;;;;;;8.82;1.67;;;9.70;64.20;;;;;;5021545;28;20121;-53
2021/03/16 12:32:24;;;;;;;12.18;1.80;;;9.80;65.00;;;;;;5027647;28;20037;-52
2021/03/16 12:34:51;;;;;;;8.98;1.60;;;9.90;63.90;;;;;;5009647;28;20119;-52
2021/03/16 12:37:20;;;;;;;8.70;1.30;;;9.90;61.90;;;;;;5019392;28;20071;-53
2021/03/16 12:39:46;;;;;;;7.55;1.88;;;9.90;62.10;;;;;;5017735;28;20490;-55
2021/03/16 12:42:12;;;;;;;8.25;1.58;;;9.90;61.50;;;;;;5023521;28;20044;-55
2021/03/16 12:44:38;;;;;;;11.90;1.83;;;10.10;58.60;;;;;;5017098;28;20434;-56
2021/03/16 12:47:05;;;;;;;9.57;1.67;;;10.10;58.80;;;;;;5027659;28;20045;-56
2021/03/16 12:49:34;;;;;;;9.35;1.40;;;10.10;61.20;;;;;;5027144;28;20530;-55
2021/03/16 12:52:00;;;;;;;9.30;1.98;;;10.10;60.40;;;;;;5019662;28;20041;-56
2021/03/16 12:54:26;;;;;;;7.97;1.50;;;10.00;60.70;;;;;;5024785;28;20113;-56